createdAt,value
2022-08-26T00:01:01.921Z,611.6
2022-08-26T00:02:05.027Z,611.5
2022-08-26T00:03:10.637Z,611.6
2022-08-26T00:04:13.688Z,611.4
2022-08-26T00:05:16.306Z,611.7
2022-08-26T00:07:23.812Z,611.9
2022-08-26T00:08:26.629Z,612
2022-08-26T00:09:29.507Z,612
2022-08-26T00:10:31.433Z,612
2022-08-26T00:11:33.914Z,612.1
2022-08-26T00:14:46.351Z,611.8
2022-08-26T00:15:49.427Z,612.2
2022-08-26T00:17:58.994Z,612.1
2022-08-26T00:19:01.772Z,611.9
2022-08-26T00:20:05.048Z,612.3
2022-08-26T00:21:08.349Z,612.3
2022-08-26T00:24:27.069Z,612.4
2022-08-26T00:25:30.174Z,612.1
2022-08-26T00:26:32.643Z,612.1
2022-08-26T00:27:36.629Z,611.8
2022-08-26T00:28:41.325Z,611.9
2022-08-26T00:29:43.250Z,612.1
2022-08-26T00:31:54.792Z,612.1
2022-08-26T00:32:58.192Z,612.2
2022-08-26T00:34:01.195Z,612.3
2022-08-26T00:35:03.797Z,612.4
2022-08-26T00:36:06.898Z,612.4
2022-08-26T00:38:16.862Z,612.3
2022-08-26T00:39:21.786Z,612.1
2022-08-26T00:40:25.628Z,612.1
2022-08-26T00:41:29.124Z,612.5
2022-08-26T00:42:31.614Z,612.5
2022-08-26T00:45:46.002Z,612.4
2022-08-26T00:46:49.194Z,612.5
2022-08-26T00:47:52.024Z,612.6
2022-08-26T00:48:55.068Z,612.7
2022-08-26T00:49:57.821Z,612.5
2022-08-26T00:50:59.742Z,612.3
2022-08-26T00:52:03.397Z,612.6
2022-08-26T00:53:07.149Z,612.5
2022-08-26T00:56:19.585Z,612.3
2022-08-26T00:57:21.922Z,612.4
2022-08-26T00:58:24.397Z,612.6
2022-08-26T00:59:27.942Z,612.4
2022-08-26T01:00:30.420Z,612.6
2022-08-26T01:01:34.515Z,612.4
2022-08-26T01:03:41.877Z,612.3
2022-08-26T01:05:56.919Z,612.4
2022-08-26T01:06:59.889Z,611.9
2022-08-26T01:09:08.080Z,612.1
2022-08-26T01:10:12.013Z,611.8
2022-08-26T01:11:14.193Z,611.9
2022-08-26T01:13:26.773Z,611.7
2022-08-26T01:14:29.244Z,611.9
2022-08-26T01:16:37.149Z,612.3
2022-08-26T01:17:39.664Z,612.4
2022-08-26T01:18:43.796Z,612.4
2022-08-26T01:19:46.369Z,612.2
2022-08-26T01:20:48.842Z,612.3
2022-08-26T01:21:51.332Z,612
2022-08-26T01:22:54.272Z,612.2
2022-08-26T01:27:14.006Z,612.7
2022-08-26T01:28:18.529Z,612.5
2022-08-26T01:29:21.656Z,612.4
2022-08-26T01:30:23.565Z,612.5
2022-08-26T01:31:26.274Z,612.7
2022-08-26T01:32:28.929Z,612.5
2022-08-26T01:34:37.414Z,612.7
2022-08-26T01:35:40.524Z,612.5
2022-08-26T01:37:50.236Z,612.9
2022-08-26T01:38:56.911Z,612.6
2022-08-26T01:40:00.327Z,612.7
2022-08-26T01:43:15.081Z,612.3
2022-08-26T01:44:18.101Z,612.1
2022-08-26T01:45:21.582Z,612.1
2022-08-26T01:46:24.501Z,612.3
2022-08-26T01:48:33.393Z,612.4
2022-08-26T01:49:37.622Z,612.6
2022-08-26T01:50:40.107Z,612.4
2022-08-26T01:51:42.736Z,612.4
2022-08-26T01:53:52.385Z,612.3
2022-08-26T01:54:56.641Z,612.5
2022-08-26T01:55:59.119Z,612.6
2022-08-26T01:57:02.923Z,612.4
2022-08-26T01:58:05.599Z,612.3
2022-08-26T01:59:11.217Z,612.3
2022-08-26T02:01:20.078Z,612.1
2022-08-26T02:02:25.040Z,612.2
2022-08-26T02:03:27.795Z,612.5
2022-08-26T02:04:30.770Z,612.8
2022-08-26T02:05:34.101Z,612.3
2022-08-26T02:06:36.539Z,612.8
2022-08-26T02:07:39.490Z,612.3
2022-08-26T02:08:42.163Z,612.6
2022-08-26T02:09:44.641Z,612.2
2022-08-26T02:10:47.519Z,612.2
2022-08-26T02:11:52.652Z,612.3
2022-08-26T02:12:55.132Z,612.1
2022-08-26T02:13:58.783Z,612.3
2022-08-26T02:16:11.515Z,612.5
2022-08-26T02:17:13.448Z,612.7
2022-08-26T02:18:18.046Z,612.9
2022-08-26T02:19:24.410Z,612.9
2022-08-26T02:20:28.508Z,613.1
2022-08-26T02:21:33.663Z,612.7
2022-08-26T02:22:36.140Z,612.7
2022-08-26T02:23:39.870Z,612.7
2022-08-26T02:24:44.463Z,612.7
2022-08-26T02:25:46.989Z,612.7
2022-08-26T02:26:50.711Z,612.8
2022-08-26T02:27:53.199Z,612.8
2022-08-26T02:28:55.939Z,612.7
2022-08-26T02:29:59.415Z,612.9
2022-08-26T02:33:20.598Z,612.9
2022-08-26T02:34:23.061Z,612.9
2022-08-26T02:35:26.297Z,612.8
2022-08-26T02:36:30.531Z,612.9
2022-08-26T02:37:34.940Z,612.8
2022-08-26T02:40:53.052Z,612.9
2022-08-26T02:41:55.258Z,613.1
2022-08-26T02:43:00.614Z,612.8
2022-08-26T02:44:05.239Z,612.9
2022-08-26T02:45:09.239Z,613.1
2022-08-26T02:47:18.366Z,613.3
2022-08-26T02:48:20.930Z,613.2
2022-08-26T02:49:23.761Z,613.2
2022-08-26T02:50:27.000Z,613
2022-08-26T02:51:28.695Z,612.9
2022-08-26T02:52:32.780Z,613.1
2022-08-26T02:53:37.705Z,613.2
2022-08-26T02:54:42.073Z,613.1
2022-08-26T02:56:51.822Z,613.2
2022-08-26T02:57:54.133Z,612.9
2022-08-26T02:58:58.517Z,612.9
2022-08-26T03:00:03.346Z,613.3
2022-08-26T03:01:08.536Z,613.2
2022-08-26T03:02:12.092Z,613.2
2022-08-26T03:03:14.306Z,613
2022-08-26T03:04:17.211Z,613.1
2022-08-26T03:05:19.693Z,613
2022-08-26T03:06:22.573Z,613.1
2022-08-26T03:07:24.747Z,613.1
2022-08-26T03:08:28.384Z,613.3
2022-08-26T03:09:30.581Z,613.5
2022-08-26T03:10:35.736Z,613.3
2022-08-26T03:11:38.221Z,613.5
2022-08-26T03:12:41.125Z,613.4
2022-08-26T03:13:43.719Z,613.3
2022-08-26T03:14:45.920Z,613.6
2022-08-26T03:15:50.076Z,613.6
2022-08-26T03:16:52.286Z,613.6
2022-08-26T03:19:00.678Z,613.9
2022-08-26T03:20:03.956Z,613.8
2022-08-26T03:21:06.473Z,613.8
2022-08-26T03:22:08.786Z,613.5
2022-08-26T03:23:11.525Z,613.8
2022-08-26T03:24:13.729Z,613.8
2022-08-26T03:25:16.671Z,613.7
2022-08-26T03:26:33.523Z,613.6
2022-08-26T03:27:36.601Z,613.4
2022-08-26T03:28:39.213Z,613.6
2022-08-26T03:29:41.403Z,613.8
2022-08-26T03:31:50.380Z,613.4
2022-08-26T03:32:53.705Z,613.4
2022-08-26T03:35:01.993Z,613.4
2022-08-26T03:36:04.798Z,613.7
2022-08-26T03:37:07.301Z,613.5
2022-08-26T03:38:11.207Z,613.6
2022-08-26T03:39:13.683Z,613.8
2022-08-26T03:41:22.137Z,613.7
2022-08-26T03:42:24.606Z,613.6
2022-08-26T03:43:27.598Z,613.6
2022-08-26T03:44:30.066Z,613.6
2022-08-26T03:45:32.589Z,613.4
2022-08-26T03:46:35.475Z,613.2
2022-08-26T03:47:40.159Z,613.1
2022-08-26T03:48:45.029Z,613.5
2022-08-26T03:49:47.344Z,613.3
2022-08-26T03:50:52.627Z,613.3
2022-08-26T03:51:57.345Z,613.5
2022-08-26T03:53:01.313Z,613.6
2022-08-26T03:55:12.292Z,613.6
2022-08-26T03:56:14.763Z,613.9
2022-08-26T03:57:20.741Z,614.3
2022-08-26T03:58:24.339Z,614.2
2022-08-26T03:59:28.196Z,614
2022-08-26T04:00:30.737Z,614.3
2022-08-26T04:01:34.256Z,614.4
2022-08-26T04:02:38.135Z,614.2
2022-08-26T04:03:40.856Z,614.4
2022-08-26T04:04:43.386Z,614.4
2022-08-26T04:05:47.595Z,614.6
2022-08-26T04:06:51.319Z,614.6
2022-08-26T04:07:53.527Z,614.6
2022-08-26T04:08:56.204Z,614.5
2022-08-26T04:09:58.689Z,614.7
2022-08-26T04:11:02.341Z,614.9
2022-08-26T04:12:06.308Z,614.9
2022-08-26T04:13:09.803Z,614.9
2022-08-26T04:14:12.172Z,614.7
2022-08-26T04:15:16.213Z,615
2022-08-26T04:16:21.188Z,614.7
2022-08-26T04:17:27.032Z,614.5
2022-08-26T04:19:34.574Z,614.7
2022-08-26T04:20:37.589Z,614.6
2022-08-26T04:21:41.785Z,614.5
2022-08-26T04:22:44.436Z,614.4
2022-08-26T04:24:52.118Z,614.7
2022-08-26T04:25:54.589Z,614.8
2022-08-26T04:26:56.841Z,615.1
2022-08-26T04:27:59.354Z,614.8
2022-08-26T04:29:01.843Z,614.8
2022-08-26T04:30:05.329Z,614.5
2022-08-26T04:31:08.739Z,614.4
2022-08-26T04:32:12.613Z,614.8
2022-08-26T04:33:15.765Z,614.9
2022-08-26T04:34:18.479Z,614.8
2022-08-26T04:36:25.962Z,614.5
2022-08-26T04:37:28.897Z,614.7
2022-08-26T04:38:31.374Z,614.4
2022-08-26T04:39:33.838Z,614.4
2022-08-26T04:41:46.104Z,614.5
2022-08-26T04:42:48.302Z,614.3
2022-08-26T04:43:55.007Z,614.1
2022-08-26T04:44:57.203Z,614.3
2022-08-26T04:46:00.416Z,613.9
2022-08-26T04:47:04.511Z,614.2
2022-08-26T04:49:11.910Z,614.5
2022-08-26T04:50:15.526Z,614.4
2022-08-26T04:51:23.399Z,614.4
2022-08-26T04:53:32.568Z,614.7
2022-08-26T04:54:36.232Z,614.3
2022-08-26T04:56:46.167Z,614.5
2022-08-26T04:57:51.294Z,614.4
2022-08-26T04:58:53.491Z,614
2022-08-26T04:59:55.710Z,614.2
2022-08-26T05:00:58.314Z,614.3
2022-08-26T05:02:02.148Z,614.4
2022-08-26T05:05:21.741Z,613.8
2022-08-26T05:06:25.525Z,614.7
2022-08-26T05:07:27.738Z,614.2
2022-08-26T05:08:30.341Z,614
2022-08-26T05:09:32.830Z,614.2
2022-08-26T05:10:35.479Z,614.2
2022-08-26T05:11:38.026Z,613.9
2022-08-26T05:13:48.258Z,613.7
2022-08-26T05:14:50.458Z,613.6
2022-08-26T05:17:02.973Z,613.8
2022-08-26T05:18:06.137Z,613.3
2022-08-26T05:19:10.972Z,613.4
2022-08-26T05:20:14.014Z,613.3
2022-08-26T05:21:18.256Z,613.2
2022-08-26T05:22:21.397Z,612.9
2022-08-26T05:23:24.077Z,613.1
2022-08-26T05:24:27.777Z,612.8
2022-08-26T05:25:31.991Z,612.7
2022-08-26T05:26:35.309Z,613.1
2022-08-26T05:27:40.199Z,613.1
2022-08-26T05:28:44.077Z,612.9
2022-08-26T05:29:47.087Z,612.7
2022-08-26T05:30:54.403Z,612.5
2022-08-26T05:31:59.504Z,612.3
2022-08-26T05:33:03.703Z,612.7
2022-08-26T05:34:07.209Z,612.5
2022-08-26T05:35:11.119Z,612.4
2022-08-26T05:36:15.019Z,612.1
2022-08-26T05:37:18.951Z,611.9
2022-08-26T05:38:21.485Z,612.2
2022-08-26T05:39:24.035Z,611.9
2022-08-26T05:40:28.509Z,611.9
2022-08-26T05:42:37.283Z,611.9
2022-08-26T05:43:41.261Z,611.6
2022-08-26T05:45:51.881Z,611.4
2022-08-26T05:46:53.866Z,611.2
2022-08-26T05:47:56.354Z,611.6
2022-08-26T05:48:58.915Z,611.5
2022-08-26T05:50:01.396Z,611.7
2022-08-26T05:51:03.859Z,611.5
2022-08-26T05:52:06.540Z,611.3
2022-08-26T05:53:10.564Z,611.8
2022-08-26T05:54:13.036Z,611.5
2022-08-26T05:55:18.635Z,611.7
2022-08-26T05:56:21.854Z,611.4
2022-08-26T05:57:25.167Z,611.5
2022-08-26T05:58:28.759Z,611.7
2022-08-26T06:00:38.255Z,611
2022-08-26T06:01:41.008Z,611
2022-08-26T06:03:51.780Z,611.1
2022-08-26T06:04:54.872Z,611
2022-08-26T06:05:56.990Z,611.2
2022-08-26T06:07:00.382Z,611.2
2022-08-26T06:08:04.258Z,611.3
2022-08-26T06:12:22.967Z,611.5
2022-08-26T06:13:25.456Z,611.5
2022-08-26T06:14:28.832Z,611.1
2022-08-26T06:15:31.696Z,611.2
2022-08-26T06:16:35.816Z,611.1
2022-08-26T06:17:38.559Z,610.9
2022-08-26T06:18:40.768Z,611.1
2022-08-26T06:19:43.702Z,611.2
2022-08-26T06:22:56.360Z,610.8
2022-08-26T06:24:02.217Z,610.9
2022-08-26T06:25:08.539Z,611
2022-08-26T06:26:13.087Z,610.8
2022-08-26T06:27:17.903Z,610.9
2022-08-26T06:28:20.379Z,610.9
2022-08-26T06:30:28.192Z,610.8
2022-08-26T06:31:33.559Z,610.9
2022-08-26T06:32:36.997Z,611.2
2022-08-26T06:33:40.579Z,611.1
2022-08-26T06:34:43.987Z,611.2
2022-08-26T06:35:46.178Z,611.1
2022-08-26T06:36:48.670Z,611.4
2022-08-26T06:37:56.335Z,611.7
2022-08-26T06:38:58.814Z,611.2
2022-08-26T06:40:01.435Z,611.3
2022-08-26T06:41:08.768Z,611.2
2022-08-26T06:42:13.815Z,611.5
2022-08-26T06:43:16.043Z,611
2022-08-26T06:44:21.905Z,611
2022-08-26T06:45:24.236Z,610.9
2022-08-26T06:46:28.540Z,610.9
2022-08-26T06:47:31.184Z,611
2022-08-26T06:48:38.134Z,610.8
2022-08-26T06:49:41.921Z,610.9
2022-08-26T06:50:46.790Z,610.5
2022-08-26T06:51:53.461Z,610.4
2022-08-26T06:53:00.879Z,610.5
2022-08-26T06:54:03.541Z,610.5
2022-08-26T06:55:06.169Z,610.5
2022-08-26T06:56:11.560Z,610.3
2022-08-26T06:57:18.550Z,610.5
2022-08-26T06:58:22.392Z,610.3
2022-08-26T06:59:24.584Z,610.6
2022-08-26T07:00:28.794Z,610.2
2022-08-26T07:01:33.647Z,610.4
2022-08-26T07:02:38.004Z,610.7
2022-08-26T07:03:44.376Z,610.6
2022-08-26T07:05:58.956Z,610.4
2022-08-26T07:07:02.844Z,610.5
2022-08-26T07:08:05.043Z,610.6
2022-08-26T07:10:11.985Z,610.7
2022-08-26T07:11:14.015Z,610.5
2022-08-26T07:12:16.322Z,610.7
2022-08-26T07:14:25.294Z,610.5
2022-08-26T07:16:36.503Z,610
2022-08-26T07:17:41.391Z,609.8
2022-08-26T07:19:50.755Z,610
2022-08-26T07:20:56.618Z,609.8
2022-08-26T07:21:59.008Z,610
2022-08-26T07:23:03.268Z,609.8
2022-08-26T07:24:06.072Z,609.5
2022-08-26T07:25:08.547Z,609.6
2022-08-26T07:26:11.029Z,609.3
2022-08-26T07:27:13.542Z,609.3
2022-08-26T07:28:16.075Z,609.4
2022-08-26T07:29:19.817Z,609.3
2022-08-26T07:30:26.797Z,609.3
2022-08-26T07:32:36.992Z,609.2
2022-08-26T07:33:42.329Z,609.2
2022-08-26T07:34:44.446Z,609.3
2022-08-26T07:35:47.003Z,609.3
2022-08-26T07:36:50.820Z,608.8
2022-08-26T07:38:58.326Z,609.1
2022-08-26T07:40:02.624Z,608.9
2022-08-26T07:41:05.004Z,608.9
2022-08-26T07:43:13.941Z,608.6
2022-08-26T07:44:18.605Z,608.6
2022-08-26T07:45:22.747Z,608.8
2022-08-26T07:47:31.181Z,608.7
2022-08-26T07:48:37.986Z,608.4
2022-08-26T07:49:41.425Z,608.9
2022-08-26T07:51:48.911Z,608.8
2022-08-26T07:52:50.818Z,608.4
2022-08-26T07:53:54.540Z,608.9
2022-08-26T07:54:57.044Z,608.7
2022-08-26T07:55:59.724Z,608.9
2022-08-26T07:58:08.139Z,608.6
2022-08-26T08:00:17.476Z,608.9
2022-08-26T08:01:20.457Z,609
2022-08-26T08:02:22.882Z,609.1
2022-08-26T08:03:25.636Z,608.9
2022-08-26T08:04:28.766Z,609.2
2022-08-26T08:06:36.506Z,609.5
2022-08-26T08:08:43.702Z,609
2022-08-26T08:09:45.927Z,608.8
2022-08-26T08:11:53.515Z,609.1
2022-08-26T08:12:57.760Z,608.8
2022-08-26T08:14:00.937Z,609.1
2022-08-26T08:15:05.736Z,609
2022-08-26T08:17:14.249Z,608.9
2022-08-26T08:20:32.685Z,609
2022-08-26T08:21:36.205Z,609.1
2022-08-26T08:22:38.408Z,609.5
2022-08-26T08:23:41.056Z,609.6
2022-08-26T08:24:43.365Z,609.7
2022-08-26T08:25:46.860Z,609.6
2022-08-26T08:26:49.934Z,609.5
2022-08-26T08:27:53.005Z,609.4
2022-08-26T08:28:56.268Z,609.8
2022-08-26T08:29:58.480Z,609.3
2022-08-26T08:31:01.639Z,609.5
2022-08-26T08:32:05.040Z,609.6
2022-08-26T08:33:08.116Z,609.7
2022-08-26T08:34:10.769Z,609.6
2022-08-26T08:35:14.499Z,608.9
2022-08-26T08:37:22.615Z,609
2022-08-26T08:38:27.739Z,608.9
2022-08-26T08:39:30.226Z,608.8
2022-08-26T08:40:33.532Z,608.9
2022-08-26T08:41:37.019Z,609.1
2022-08-26T08:42:39.753Z,608.9
2022-08-26T08:43:42.017Z,609
2022-08-26T08:44:44.511Z,609.5
2022-08-26T08:45:51.985Z,609.3
2022-08-26T08:46:54.237Z,609.5
2022-08-26T08:47:57.072Z,609.8
2022-08-26T08:48:59.365Z,609.8
2022-08-26T08:50:02.104Z,609.9
2022-08-26T08:51:06.087Z,609.8
2022-08-26T08:52:08.300Z,609.4
2022-08-26T08:53:11.182Z,609.8
2022-08-26T08:54:13.127Z,609.3
2022-08-26T08:56:21.408Z,609.7
2022-08-26T08:57:24.225Z,609.8
2022-08-26T08:58:26.711Z,609.3
2022-08-26T08:59:28.483Z,609.3
2022-08-26T09:01:39.270Z,609.2
2022-08-26T09:02:42.571Z,609.5
2022-08-26T09:03:44.571Z,609.5
2022-08-26T09:04:47.584Z,609.7
2022-08-26T09:05:50.703Z,609.6
2022-08-26T09:06:52.637Z,609.7
2022-08-26T09:07:56.264Z,609.6
2022-08-26T09:09:00.891Z,610.1
2022-08-26T09:10:03.944Z,610
2022-08-26T09:11:10.089Z,610.2
2022-08-26T09:12:12.715Z,610.1
2022-08-26T09:14:20.418Z,610.3
2022-08-26T09:16:31.089Z,610.1
2022-08-26T09:17:33.331Z,610
2022-08-26T09:18:35.566Z,610.2
2022-08-26T09:19:37.994Z,610.1
2022-08-26T09:22:53.436Z,610
2022-08-26T09:23:57.594Z,609.9
2022-08-26T09:25:02.162Z,610.3
2022-08-26T09:26:05.514Z,609.9
2022-08-26T09:28:16.361Z,610.1
2022-08-26T09:30:24.535Z,610.3
2022-08-26T09:31:29.134Z,610.1
2022-08-26T09:32:33.169Z,610.4
2022-08-26T09:33:36.393Z,610.3
2022-08-26T09:34:39.323Z,610.1
2022-08-26T09:35:41.953Z,610.4
2022-08-26T09:36:44.451Z,610.5
2022-08-26T09:38:49.523Z,610.6
2022-08-26T09:39:53.116Z,611.3
2022-08-26T09:42:00.699Z,611.3
2022-08-26T09:45:17.519Z,611.3
2022-08-26T09:46:21.034Z,611.6
2022-08-26T09:47:24.343Z,611.7
2022-08-26T09:48:26.452Z,611.5
2022-08-26T09:50:36.907Z,611.9
2022-08-26T09:51:40.432Z,612.1
2022-08-26T09:52:45.008Z,611.9
2022-08-26T09:53:47.505Z,612.5
2022-08-26T09:54:49.841Z,612.2
2022-08-26T09:55:52.340Z,612.5
2022-08-26T09:56:54.919Z,612.2
2022-08-26T10:00:17.169Z,612.9
2022-08-26T10:01:21.672Z,613
2022-08-26T10:02:25.538Z,613.4
2022-08-26T10:04:34.477Z,613.3
2022-08-26T10:05:37.180Z,613.8
2022-08-26T10:06:39.379Z,613.6
2022-08-26T10:07:41.307Z,613.9
2022-08-26T10:10:56.008Z,614.3
2022-08-26T10:11:58.511Z,614.6
2022-08-26T10:13:02.096Z,614.4
2022-08-26T10:14:04.982Z,614.9
2022-08-26T10:15:09.621Z,614.7
2022-08-26T10:16:14.469Z,614.9
2022-08-26T10:17:16.463Z,614.7
2022-08-26T10:18:19.688Z,615.5
2022-08-26T10:19:22.105Z,615.2
2022-08-26T10:20:26.770Z,615.7
2022-08-26T10:21:29.351Z,615.5
2022-08-26T10:22:31.956Z,615.5
2022-08-26T10:23:34.721Z,615.4
2022-08-26T10:24:37.298Z,616.2
2022-08-26T10:26:47.739Z,615.6
2022-08-26T10:28:54.677Z,615.6
2022-08-26T10:29:57.150Z,616
2022-08-26T10:31:00.746Z,615.9
2022-08-26T10:33:08.807Z,616.1
2022-08-26T10:35:17.050Z,616.5
2022-08-26T10:37:25.267Z,616.9
2022-08-26T10:39:32.938Z,617.4
2022-08-26T10:40:37.341Z,617.6
2022-08-26T10:41:41.820Z,617.3
2022-08-26T10:42:44.486Z,617.3
2022-08-26T10:43:51.339Z,617.2
2022-08-26T10:46:01.577Z,617
2022-08-26T10:47:08.626Z,617.6
2022-08-26T10:48:11.698Z,617.8
2022-08-26T10:49:13.972Z,617.5
2022-08-26T10:53:34.438Z,617.9
2022-08-26T10:54:38.330Z,618
2022-08-26T10:55:40.907Z,618.2
2022-08-26T10:56:43.884Z,618.2
2022-08-26T10:57:46.044Z,618.3
2022-08-26T10:58:50.116Z,618.2
2022-08-26T10:59:53.647Z,618.3
2022-08-26T11:00:56.497Z,618.7
2022-08-26T11:01:58.767Z,618.6
2022-08-26T11:03:02.070Z,618.7
2022-08-26T11:04:06.445Z,618.9
2022-08-26T11:05:10.049Z,619.3
2022-08-26T11:06:14.441Z,619.1
2022-08-26T11:07:16.661Z,619.3
2022-08-26T11:08:21.698Z,619.1
2022-08-26T11:10:29.629Z,619.6
2022-08-26T11:11:32.763Z,619.5
2022-08-26T11:12:38.101Z,619.5
2022-08-26T11:15:51.418Z,620.2
2022-08-26T11:16:54.714Z,619.9
2022-08-26T11:17:56.663Z,620.1
2022-08-26T11:19:00.677Z,620.1
2022-08-26T11:22:15.776Z,620.3
2022-08-26T11:23:18.242Z,620.5
2022-08-26T11:24:22.263Z,620.4
2022-08-26T11:27:34.835Z,620.6
2022-08-26T11:28:37.316Z,620.9
2022-08-26T11:29:38.987Z,621
2022-08-26T11:30:41.959Z,621
2022-08-26T11:31:46.873Z,621.6
2022-08-26T11:32:51.241Z,621.4
2022-08-26T11:33:55.323Z,621.5
2022-08-26T11:35:00.834Z,621.5
2022-08-26T11:38:14.770Z,621.4
2022-08-26T11:39:17.107Z,621.9
2022-08-26T11:40:20.380Z,621.6
2022-08-26T11:41:22.866Z,621.4
2022-08-26T11:43:32.431Z,622
2022-08-26T11:44:36.372Z,622.1
2022-08-26T11:45:39.678Z,621.6
2022-08-26T11:46:42.202Z,621.8
2022-08-26T11:47:45.434Z,621.8
2022-08-26T11:48:47.905Z,622.5
2022-08-26T11:49:51.998Z,622.5
2022-08-26T11:50:54.192Z,622.9
2022-08-26T11:51:57.948Z,622.5
2022-08-26T11:53:01.454Z,622.8
2022-08-26T11:54:05.274Z,622.8
2022-08-26T11:55:07.525Z,623.2
2022-08-26T11:56:09.872Z,623.4
2022-08-26T11:57:14.245Z,623.4
2022-08-26T11:58:16.178Z,623.9
2022-08-26T11:59:18.446Z,623.5
2022-08-26T12:02:35.810Z,624.3
2022-08-26T12:03:39.373Z,623.9
2022-08-26T12:04:42.333Z,624.2
2022-08-26T12:05:45.577Z,624.2
2022-08-26T12:06:47.781Z,624.2
2022-08-26T12:07:49.952Z,624.1
2022-08-26T12:08:58.730Z,624.4
2022-08-26T12:10:04.141Z,624.3
2022-08-26T12:11:08.851Z,624.6
2022-08-26T12:13:18.958Z,625
2022-08-26T12:14:21.445Z,624.3
2022-08-26T12:15:24.948Z,624.7
2022-08-26T12:16:28.475Z,625
2022-08-26T12:17:32.172Z,624.6
2022-08-26T12:18:36.797Z,625.1
2022-08-26T12:19:39.023Z,625.2
2022-08-26T12:20:43.072Z,625.1
2022-08-26T12:21:45.563Z,625.5
2022-08-26T12:22:50.246Z,625.3
2022-08-26T12:23:55.774Z,625.5
2022-08-26T12:24:58.254Z,625.6
2022-08-26T12:26:01.009Z,625.4
2022-08-26T12:27:05.044Z,626.1
2022-08-26T12:28:08.959Z,625.9
2022-08-26T12:31:22.214Z,625.7
2022-08-26T12:32:28.980Z,625.5
2022-08-26T12:33:32.733Z,625.8
2022-08-26T12:34:34.660Z,626.1
2022-08-26T12:36:47.618Z,626.3
2022-08-26T12:37:52.364Z,627.1
2022-08-26T12:40:00.181Z,626.9
2022-08-26T12:41:02.698Z,627
2022-08-26T12:42:05.185Z,627.4
2022-08-26T12:43:07.404Z,627.1
2022-08-26T12:44:09.881Z,626.7
2022-08-26T12:45:12.079Z,627
2022-08-26T12:46:14.560Z,627.1
2022-08-26T12:49:26.498Z,626.8
2022-08-26T12:50:28.419Z,627.1
2022-08-26T12:51:30.624Z,626.9
2022-08-26T12:52:32.814Z,626.8
2022-08-26T12:53:35.300Z,627.3
2022-08-26T12:54:37.216Z,627.2
2022-08-26T12:55:39.698Z,627.4
2022-08-26T12:56:42.191Z,627.6
2022-08-26T12:57:44.408Z,627.5
2022-08-26T12:58:46.572Z,627.8
2022-08-26T12:59:48.781Z,628
2022-08-26T13:00:51.714Z,628.3
2022-08-26T13:01:55.403Z,628.6
2022-08-26T13:02:57.945Z,628.4
2022-08-26T13:04:00.149Z,628.4
2022-08-26T13:05:02.790Z,628.7
2022-08-26T13:06:05.278Z,629
2022-08-26T13:07:07.757Z,628.6
2022-08-26T13:08:09.960Z,629.1
2022-08-26T13:09:12.433Z,628.8
2022-08-26T13:10:14.648Z,629.1
2022-08-26T13:11:17.137Z,629
2022-08-26T13:12:19.622Z,629
2022-08-26T13:13:21.817Z,629
2022-08-26T13:14:26.430Z,628.8
2022-08-26T13:15:28.365Z,628.5
2022-08-26T13:16:31.156Z,629.3
2022-08-26T13:17:32.829Z,629.6
2022-08-26T13:18:35.322Z,629.9
2022-08-26T13:19:37.554Z,630.1
2022-08-26T13:20:40.048Z,630.1
2022-08-26T13:21:42.258Z,630.1
2022-08-26T13:22:44.767Z,630.5
2022-08-26T13:23:51.692Z,630.8
2022-08-26T13:24:53.884Z,631
2022-08-26T13:25:56.364Z,631.3
2022-08-26T13:26:58.614Z,631
2022-08-26T13:28:01.106Z,631
2022-08-26T13:31:19.127Z,631
2022-08-26T13:33:31.664Z,630.9
2022-08-26T13:34:33.878Z,630.6
2022-08-26T13:35:36.354Z,630.9
2022-08-26T13:36:38.546Z,630.9
2022-08-26T13:37:42.940Z,630.9
2022-08-26T13:39:49.771Z,630.8
2022-08-26T13:40:52.268Z,631.4
2022-08-26T13:41:54.188Z,631.8
2022-08-26T13:42:56.655Z,631.4
2022-08-26T13:44:00.881Z,631.9
2022-08-26T13:45:03.071Z,631.4
2022-08-26T13:46:05.277Z,631.3
2022-08-26T13:47:07.750Z,631.6
2022-08-26T13:48:11.092Z,631.7
2022-08-26T13:49:13.555Z,631.6
2022-08-26T13:50:15.456Z,631.5
2022-08-26T13:51:17.358Z,631.2
2022-08-26T13:53:24.840Z,631.5
2022-08-26T13:54:27.317Z,631.9
2022-08-26T13:55:29.793Z,632
2022-08-26T13:56:32.264Z,631.8
2022-08-26T13:57:34.465Z,631.9
2022-08-26T13:58:36.935Z,631.9
2022-08-26T13:59:41.896Z,631.5
2022-08-26T14:00:44.762Z,631.8
2022-08-26T14:01:47.270Z,631.7
2022-08-26T14:02:49.741Z,631.6
2022-08-26T14:03:52.609Z,631.7
2022-08-26T14:04:54.843Z,631.9
2022-08-26T14:05:57.058Z,632.3
2022-08-26T14:06:59.284Z,631.9
2022-08-26T14:08:01.499Z,632.7
2022-08-26T14:09:04.067Z,632.7
2022-08-26T14:10:06.378Z,632.6
2022-08-26T14:11:08.585Z,633.1
2022-08-26T14:12:11.108Z,632.8
2022-08-26T14:13:13.597Z,633
2022-08-26T14:14:16.575Z,633.3
2022-08-26T14:15:19.058Z,632.9
2022-08-26T14:16:22.097Z,633
2022-08-26T14:17:24.607Z,632.7
2022-08-26T14:19:32.114Z,632.7
2022-08-26T14:20:34.593Z,632.6
2022-08-26T14:21:37.073Z,632.3
2022-08-26T14:23:44.244Z,632
2022-08-26T14:24:46.165Z,631.8
2022-08-26T14:25:48.364Z,632.5
2022-08-26T14:26:50.552Z,632.5
2022-08-26T14:27:52.749Z,632.5
2022-08-26T14:28:55.236Z,632.3
2022-08-26T14:31:03.500Z,632.2
2022-08-26T14:32:06.338Z,632.4
2022-08-26T14:33:08.901Z,632.6
2022-08-26T14:34:11.428Z,632.6
2022-08-26T14:35:13.927Z,632.7
2022-08-26T14:36:16.391Z,632.4
2022-08-26T14:37:18.884Z,631.9
2022-08-26T14:38:20.816Z,632.2
2022-08-26T14:39:22.911Z,632.2
2022-08-26T14:40:26.078Z,631.8
2022-08-26T14:41:28.608Z,632.1
2022-08-26T14:43:36.095Z,632
2022-08-26T14:44:38.579Z,631.9
2022-08-26T14:46:43.869Z,631.6
2022-08-26T14:47:46.373Z,632
2022-08-26T14:48:48.859Z,632.1
2022-08-26T14:49:51.329Z,632.4
2022-08-26T14:50:53.240Z,632.1
2022-08-26T14:51:55.416Z,632.1
2022-08-26T14:52:57.610Z,632.5
2022-08-26T14:54:00.105Z,632.7
2022-08-26T14:55:02.285Z,632.9
2022-08-26T14:57:10.299Z,633.5
2022-08-26T14:58:12.339Z,633.7
2022-08-26T14:59:14.826Z,634
2022-08-26T15:00:17.307Z,633.9
2022-08-26T15:01:19.767Z,634.4
2022-08-26T15:03:27.274Z,634.2
2022-08-26T15:04:29.758Z,634.4
2022-08-26T15:05:32.271Z,634.1
2022-08-26T15:06:34.482Z,634.2
2022-08-26T15:07:36.963Z,634.3
2022-08-26T15:08:39.434Z,634.1
2022-08-26T15:09:41.344Z,633.8
2022-08-26T15:10:43.820Z,633.8
2022-08-26T15:12:51.289Z,634.6
2022-08-26T15:13:54.176Z,634.5
2022-08-26T15:14:56.113Z,635
2022-08-26T15:15:58.406Z,635.2
2022-08-26T15:17:00.904Z,634.8
2022-08-26T15:18:03.265Z,635
2022-08-26T15:19:05.766Z,634.9
2022-08-26T15:20:08.459Z,634.9
2022-08-26T15:21:12.503Z,634.8
2022-08-26T15:22:14.975Z,635.1
2022-08-26T15:24:25.247Z,635.2
2022-08-26T15:25:27.720Z,635.1
2022-08-26T15:26:30.202Z,635.2
2022-08-26T15:27:32.412Z,635.2
2022-08-26T15:28:34.890Z,635.6
2022-08-26T15:29:38.298Z,635.8
2022-08-26T15:30:40.773Z,635.8
2022-08-26T15:31:43.198Z,636
2022-08-26T15:32:45.184Z,635.5
2022-08-26T15:33:47.672Z,635.8
2022-08-26T15:34:50.163Z,635.7
2022-08-26T15:35:52.643Z,635.7
2022-08-26T15:36:55.131Z,635.8
2022-08-26T15:37:57.113Z,635.6
2022-08-26T15:38:59.611Z,635.7
2022-08-26T15:40:02.199Z,635.9
2022-08-26T15:41:05.304Z,635.6
2022-08-26T15:42:07.209Z,636
2022-08-26T15:44:14.425Z,635.8
2022-08-26T15:46:22.013Z,636
2022-08-26T15:47:24.519Z,636.5
2022-08-26T15:48:27.009Z,636.7
2022-08-26T15:49:28.699Z,636.6
2022-08-26T15:50:31.190Z,636.6
2022-08-26T15:51:33.667Z,636.6
2022-08-26T15:52:36.158Z,636.7
2022-08-26T15:53:38.635Z,636.5
2022-08-26T15:54:44.705Z,636.7
2022-08-26T15:55:47.025Z,636.7
2022-08-26T15:56:50.214Z,636.8
2022-08-26T15:57:53.882Z,636.9
2022-08-26T15:58:58.883Z,637.2
2022-08-26T16:00:02.318Z,637.3
2022-08-26T16:01:04.283Z,637.1
2022-08-26T16:02:06.896Z,637.9
2022-08-26T16:03:09.174Z,637.8
2022-08-26T16:04:11.382Z,637.8
2022-08-26T16:05:13.889Z,637.6
2022-08-26T16:06:16.599Z,637.7
2022-08-26T16:07:19.119Z,637.8
2022-08-26T16:08:21.343Z,637.7
2022-08-26T16:09:26.083Z,638
2022-08-26T16:10:28.299Z,637.9
2022-08-26T16:11:30.775Z,638
2022-08-26T16:12:32.983Z,638.2
2022-08-26T16:14:40.463Z,638.4
2022-08-26T16:15:43.224Z,638.3